sensor_id;sensor_type;location;lat;lon;timestamp;temperature;humidity
827;DHT22;395;48.132;11.608;2023-05-21T00:02:10;17.10;1.00
827;DHT22;395;48.132;11.608;2023-05-21T00:04:40;17.10;1.00
827;DHT22;395;48.132;11.608;2023-05-21T00:07:08;17.10;1.00
827;DHT22;395;48.132;11.608;2023-05-21T00:09:35;17.00;1.00
827;DHT22;395;48.132;11.608;2023-05-21T00:12:12;17.00;1.00
827;DHT22;395;48.132;11.608;2023-05-21T00:14:37;17.00;1.00
827;DHT22;395;48.132;11.608;2023-05-21T00:17:04;17.00;1.00
827;DHT22;395;48.132;11.608;2023-05-21T00:19:30;16.90;1.00
827;DHT22;395;48.132;11.608;2023-05-21T00:21:58;16.90;1.00
827;DHT22;395;48.132;11.608;2023-05-21T00:24:27;16.90;1.00
827;DHT22;395;48.132;11.608;2023-05-21T00:26:52;16.90;1.00
827;DHT22;395;48.132;11.608;2023-05-21T00:29:18;16.90;1.00
827;DHT22;395;48.132;11.608;2023-05-21T00:31:44;16.80;1.00
827;DHT22;395;48.132;11.608;2023-05-21T00:34:09;16.80;1.00
827;DHT22;395;48.132;11.608;2023-05-21T00:36:35;16.80;1.00
827;DHT22;395;48.132;11.608;2023-05-21T00:39:01;16.80;1.00
827;DHT22;395;48.132;11.608;2023-05-21T00:41:26;16.80;1.00
827;DHT22;395;48.132;11.608;2023-05-21T00:43:54;16.80;1.00
827;DHT22;395;48.132;11.608;2023-05-21T00:46:20;16.80;1.00
827;DHT22;395;48.132;11.608;2023-05-21T00:48:47;16.80;1.00
827;DHT22;395;48.132;11.608;2023-05-21T00:51:14;16.80;1.00
827;DHT22;395;48.132;11.608;2023-05-21T00:53:40;16.70;1.00
827;DHT22;395;48.132;11.608;2023-05-21T00:56:06;16.70;1.00
827;DHT22;395;48.132;11.608;2023-05-21T00:58:32;16.70;1.00
827;DHT22;395;48.132;11.608;2023-05-21T01:00:58;16.70;1.00
827;DHT22;395;48.132;11.608;2023-05-21T01:03:29;16.70;1.00
827;DHT22;395;48.132;11.608;2023-05-21T01:05:54;16.60;1.00
827;DHT22;395;48.132;11.608;2023-05-21T01:08:25;16.60;1.00
827;DHT22;395;48.132;11.608;2023-05-21T01:10:53;16.60;1.00
827;DHT22;395;48.132;11.608;2023-05-21T01:13:20;16.60;1.00
827;DHT22;395;48.132;11.608;2023-05-21T01:15:48;16.60;1.00
827;DHT22;395;48.132;11.608;2023-05-21T01:18:14;16.50;1.00
827;DHT22;395;48.132;11.608;2023-05-21T01:20:41;16.50;1.00
827;DHT22;395;48.132;11.608;2023-05-21T01:23:10;16.50;1.00
827;DHT22;395;48.132;11.608;2023-05-21T01:25:35;16.50;1.00
827;DHT22;395;48.132;11.608;2023-05-21T01:28:01;16.50;1.00
827;DHT22;395;48.132;11.608;2023-05-21T01:30:27;16.50;1.00
827;DHT22;395;48.132;11.608;2023-05-21T01:33:03;16.50;1.00
827;DHT22;395;48.132;11.608;2023-05-21T01:35:34;16.50;1.00
827;DHT22;395;48.132;11.608;2023-05-21T01:38:14;16.50;1.00
827;DHT22;395;48.132;11.608;2023-05-21T01:43:12;16.40;1.00
827;DHT22;395;48.132;11.608;2023-05-21T01:45:41;16.50;1.00
827;DHT22;395;48.132;11.608;2023-05-21T01:48:08;16.40;1.00
827;DHT22;395;48.132;11.608;2023-05-21T01:50:36;16.40;1.00
827;DHT22;395;48.132;11.608;2023-05-21T01:53:02;16.40;1.00
827;DHT22;395;48.132;11.608;2023-05-21T01:55:30;16.40;1.00
827;DHT22;395;48.132;11.608;2023-05-21T01:57:57;16.30;1.00
827;DHT22;395;48.132;11.608;2023-05-21T02:00:23;16.30;1.00
827;DHT22;395;48.132;11.608;2023-05-21T02:02:51;16.30;1.00
827;DHT22;395;48.132;11.608;2023-05-21T02:05:17;16.30;1.00
827;DHT22;395;48.132;11.608;2023-05-21T02:07:43;16.30;1.00
827;DHT22;395;48.132;11.608;2023-05-21T02:10:10;16.30;1.00
827;DHT22;395;48.132;11.608;2023-05-21T02:12:37;16.30;1.00
827;DHT22;395;48.132;11.608;2023-05-21T02:15:03;16.30;1.00
827;DHT22;395;48.132;11.608;2023-05-21T02:17:30;16.20;1.00
827;DHT22;395;48.132;11.608;2023-05-21T02:19:58;16.20;1.00
827;DHT22;395;48.132;11.608;2023-05-21T02:22:32;16.20;1.00
827;DHT22;395;48.132;11.608;2023-05-21T02:24:58;16.20;1.00
827;DHT22;395;48.132;11.608;2023-05-21T02:27:24;16.20;1.00
827;DHT22;395;48.132;11.608;2023-05-21T02:29:51;16.10;1.00
827;DHT22;395;48.132;11.608;2023-05-21T02:32:17;16.10;1.00
827;DHT22;395;48.132;11.608;2023-05-21T02:34:42;16.10;1.00
827;DHT22;395;48.132;11.608;2023-05-21T02:37:09;16.10;1.00
827;DHT22;395;48.132;11.608;2023-05-21T02:39:35;16.10;1.00
827;DHT22;395;48.132;11.608;2023-05-21T02:42:00;16.00;1.00
827;DHT22;395;48.132;11.608;2023-05-21T02:44:26;16.00;1.00
827;DHT22;395;48.132;11.608;2023-05-21T02:46:51;15.90;1.00
827;DHT22;395;48.132;11.608;2023-05-21T02:49:17;15.90;1.00
827;DHT22;395;48.132;11.608;2023-05-21T02:51:43;15.90;1.00
827;DHT22;395;48.132;11.608;2023-05-21T02:54:08;15.90;1.00
827;DHT22;395;48.132;11.608;2023-05-21T02:56:34;15.90;1.00
827;DHT22;395;48.132;11.608;2023-05-21T02:58:59;15.90;1.00
827;DHT22;395;48.132;11.608;2023-05-21T03:01:25;15.90;1.00
827;DHT22;395;48.132;11.608;2023-05-21T03:03:51;15.90;1.00
827;DHT22;395;48.132;11.608;2023-05-21T03:06:16;15.90;1.00
827;DHT22;395;48.132;11.608;2023-05-21T03:08:42;15.80;1.00
827;DHT22;395;48.132;11.608;2023-05-21T03:11:08;15.80;1.00
827;DHT22;395;48.132;11.608;2023-05-21T03:13:34;15.80;1.00
827;DHT22;395;48.132;11.608;2023-05-21T03:16:00;15.80;1.00
827;DHT22;395;48.132;11.608;2023-05-21T03:18:25;15.80;1.00
827;DHT22;395;48.132;11.608;2023-05-21T03:20:51;15.80;1.00
827;DHT22;395;48.132;11.608;2023-05-21T03:23:16;15.70;1.00
827;DHT22;395;48.132;11.608;2023-05-21T03:25:42;15.70;1.00
827;DHT22;395;48.132;11.608;2023-05-21T03:28:10;15.70;1.00
827;DHT22;395;48.132;11.608;2023-05-21T03:30:35;15.70;1.00
827;DHT22;395;48.132;11.608;2023-05-21T03:33:03;15.70;1.00
827;DHT22;395;48.132;11.608;2023-05-21T03:35:29;15.70;1.00
827;DHT22;395;48.132;11.608;2023-05-21T03:37:55;15.70;1.00
827;DHT22;395;48.132;11.608;2023-05-21T03:40:20;15.70;1.00
827;DHT22;395;48.132;11.608;2023-05-21T03:42:46;15.70;1.00
827;DHT22;395;48.132;11.608;2023-05-21T03:45:12;15.70;1.00
827;DHT22;395;48.132;11.608;2023-05-21T03:47:38;15.60;1.00
827;DHT22;395;48.132;11.608;2023-05-21T03:50:04;15.60;1.00
827;DHT22;395;48.132;11.608;2023-05-21T03:52:30;15.60;1.00
827;DHT22;395;48.132;11.608;2023-05-21T03:54:56;15.60;1.00
827;DHT22;395;48.132;11.608;2023-05-21T03:57:21;15.60;1.00
827;DHT22;395;48.132;11.608;2023-05-21T03:59:47;15.60;1.00
827;DHT22;395;48.132;11.608;2023-05-21T04:02:12;15.60;1.00
827;DHT22;395;48.132;11.608;2023-05-21T04:04:38;15.60;1.00
827;DHT22;395;48.132;11.608;2023-05-21T04:07:04;15.60;1.00
827;DHT22;395;48.132;11.608;2023-05-21T04:09:29;15.70;1.00
827;DHT22;395;48.132;11.608;2023-05-21T04:11:55;15.60;1.00
827;DHT22;395;48.132;11.608;2023-05-21T04:14:24;15.70;1.00
827;DHT22;395;48.132;11.608;2023-05-21T04:16:49;15.70;1.00
827;DHT22;395;48.132;11.608;2023-05-21T04:19:15;15.70;1.00
827;DHT22;395;48.132;11.608;2023-05-21T04:21:40;15.70;1.00
827;DHT22;395;48.132;11.608;2023-05-21T04:24:09;15.70;1.00
827;DHT22;395;48.132;11.608;2023-05-21T04:26:35;15.70;1.00
827;DHT22;395;48.132;11.608;2023-05-21T04:29:00;15.70;1.00
827;DHT22;395;48.132;11.608;2023-05-21T04:31:29;15.70;1.00
827;DHT22;395;48.132;11.608;2023-05-21T04:33:55;15.70;1.00
827;DHT22;395;48.132;11.608;2023-05-21T04:36:21;15.80;1.00
827;DHT22;395;48.132;11.608;2023-05-21T04:38:46;15.80;1.00
827;DHT22;395;48.132;11.608;2023-05-21T04:41:13;15.80;1.00
827;DHT22;395;48.132;11.608;2023-05-21T04:43:39;15.90;1.00
827;DHT22;395;48.132;11.608;2023-05-21T04:46:08;15.90;1.00
827;DHT22;395;48.132;11.608;2023-05-21T04:48:34;15.90;1.00
827;DHT22;395;48.132;11.608;2023-05-21T04:50:59;16.00;1.00
827;DHT22;395;48.132;11.608;2023-05-21T04:53:25;16.00;1.00
827;DHT22;395;48.132;11.608;2023-05-21T04:55:51;16.10;1.00
827;DHT22;395;48.132;11.608;2023-05-21T04:58:16;16.10;1.00
827;DHT22;395;48.132;11.608;2023-05-21T05:00:43;16.10;1.00
827;DHT22;395;48.132;11.608;2023-05-21T05:03:11;16.20;1.00
827;DHT22;395;48.132;11.608;2023-05-21T05:05:37;16.20;1.00
827;DHT22;395;48.132;11.608;2023-05-21T05:08:03;16.30;1.00
827;DHT22;395;48.132;11.608;2023-05-21T05:10:29;16.30;1.00
827;DHT22;395;48.132;11.608;2023-05-21T05:12:54;16.40;1.00
827;DHT22;395;48.132;11.608;2023-05-21T05:15:20;16.40;1.00
827;DHT22;395;48.132;11.608;2023-05-21T05:17:46;16.50;1.00
827;DHT22;395;48.132;11.608;2023-05-21T05:20:15;16.50;1.00
827;DHT22;395;48.132;11.608;2023-05-21T05:22:40;16.60;1.00
827;DHT22;395;48.132;11.608;2023-05-21T05:25:07;16.60;1.00
827;DHT22;395;48.132;11.608;2023-05-21T05:27:33;16.70;1.00
827;DHT22;395;48.132;11.608;2023-05-21T05:29:58;16.70;1.00
827;DHT22;395;48.132;11.608;2023-05-21T05:32:24;16.80;1.00
827;DHT22;395;48.132;11.608;2023-05-21T05:34:50;16.80;1.00
827;DHT22;395;48.132;11.608;2023-05-21T05:37:15;16.80;1.00
827;DHT22;395;48.132;11.608;2023-05-21T05:39:41;16.80;1.00
827;DHT22;395;48.132;11.608;2023-05-21T05:42:07;16.90;1.00
827;DHT22;395;48.132;11.608;2023-05-21T05:44:33;16.90;1.00
827;DHT22;395;48.132;11.608;2023-05-21T05:46:58;17.00;1.00
827;DHT22;395;48.132;11.608;2023-05-21T05:49:24;17.10;1.00
827;DHT22;395;48.132;11.608;2023-05-21T05:51:50;17.10;1.00
827;DHT22;395;48.132;11.608;2023-05-21T05:54:15;17.20;1.00
827;DHT22;395;48.132;11.608;2023-05-21T05:56:41;17.30;1.00
827;DHT22;395;48.132;11.608;2023-05-21T05:59:06;17.30;1.00
827;DHT22;395;48.132;11.608;2023-05-21T06:01:32;17.40;1.00
827;DHT22;395;48.132;11.608;2023-05-21T06:03:58;17.50;1.00
827;DHT22;395;48.132;11.608;2023-05-21T06:06:24;17.50;1.00
827;DHT22;395;48.132;11.608;2023-05-21T06:08:50;17.60;1.00
827;DHT22;395;48.132;11.608;2023-05-21T06:11:15;17.70;1.00
827;DHT22;395;48.132;11.608;2023-05-21T06:13:43;17.80;1.00
827;DHT22;395;48.132;11.608;2023-05-21T06:16:09;17.90;1.00
827;DHT22;395;48.132;11.608;2023-05-21T06:18:36;18.00;1.00
827;DHT22;395;48.132;11.608;2023-05-21T06:21:01;18.00;1.00
827;DHT22;395;48.132;11.608;2023-05-21T06:23:27;18.10;1.00
827;DHT22;395;48.132;11.608;2023-05-21T06:25:53;18.20;1.00
827;DHT22;395;48.132;11.608;2023-05-21T06:28:18;18.30;1.00
827;DHT22;395;48.132;11.608;2023-05-21T06:30:44;18.40;1.00
827;DHT22;395;48.132;11.608;2023-05-21T06:33:11;18.50;1.00
827;DHT22;395;48.132;11.608;2023-05-21T06:35:36;18.50;1.00
827;DHT22;395;48.132;11.608;2023-05-21T06:38:04;18.60;1.00
827;DHT22;395;48.132;11.608;2023-05-21T06:40:29;18.70;1.00
827;DHT22;395;48.132;11.608;2023-05-21T06:42:55;18.80;1.00
827;DHT22;395;48.132;11.608;2023-05-21T06:45:21;19.00;1.00
827;DHT22;395;48.132;11.608;2023-05-21T06:47:46;19.10;1.00
827;DHT22;395;48.132;11.608;2023-05-21T06:50:12;19.20;1.00
827;DHT22;395;48.132;11.608;2023-05-21T06:52:38;19.30;1.00
827;DHT22;395;48.132;11.608;2023-05-21T06:55:04;19.40;1.00
827;DHT22;395;48.132;11.608;2023-05-21T06:57:29;19.50;1.00
827;DHT22;395;48.132;11.608;2023-05-21T06:59:55;19.60;1.00
827;DHT22;395;48.132;11.608;2023-05-21T07:02:21;19.80;1.00
827;DHT22;395;48.132;11.608;2023-05-21T07:04:46;19.90;1.00
827;DHT22;395;48.132;11.608;2023-05-21T07:07:12;20.00;1.00
827;DHT22;395;48.132;11.608;2023-05-21T07:09:38;20.10;1.00
827;DHT22;395;48.132;11.608;2023-05-21T07:12:03;20.20;1.00
827;DHT22;395;48.132;11.608;2023-05-21T07:14:29;20.20;1.00
827;DHT22;395;48.132;11.608;2023-05-21T07:16:55;20.30;1.00
827;DHT22;395;48.132;11.608;2023-05-21T07:19:20;20.30;1.00
827;DHT22;395;48.132;11.608;2023-05-21T07:21:46;20.40;1.00
827;DHT22;395;48.132;11.608;2023-05-21T07:24:12;20.50;1.00
827;DHT22;395;48.132;11.608;2023-05-21T07:26:37;20.50;1.00
827;DHT22;395;48.132;11.608;2023-05-21T07:29:03;20.60;1.00
827;DHT22;395;48.132;11.608;2023-05-21T07:31:28;20.60;1.00
827;DHT22;395;48.132;11.608;2023-05-21T07:33:54;20.70;1.00
827;DHT22;395;48.132;11.608;2023-05-21T07:36:20;20.70;1.00
827;DHT22;395;48.132;11.608;2023-05-21T07:38:45;20.60;1.00
827;DHT22;395;48.132;11.608;2023-05-21T07:41:11;20.60;1.00
827;DHT22;395;48.132;11.608;2023-05-21T07:43:37;20.70;1.00
827;DHT22;395;48.132;11.608;2023-05-21T07:46:03;20.60;1.00
827;DHT22;395;48.132;11.608;2023-05-21T07:48:29;20.70;1.00
827;DHT22;395;48.132;11.608;2023-05-21T07:50:55;20.70;1.00
827;DHT22;395;48.132;11.608;2023-05-21T07:53:22;20.80;1.00
827;DHT22;395;48.132;11.608;2023-05-21T07:55:48;20.70;1.00
827;DHT22;395;48.132;11.608;2023-05-21T07:58:17;20.70;1.00
827;DHT22;395;48.132;11.608;2023-05-21T08:00:45;20.80;1.00
827;DHT22;395;48.132;11.608;2023-05-21T08:03:16;20.80;1.00
827;DHT22;395;48.132;11.608;2023-05-21T08:05:45;20.80;1.00
827;DHT22;395;48.132;11.608;2023-05-21T08:08:19;20.80;1.00
827;DHT22;395;48.132;11.608;2023-05-21T08:10:46;20.70;1.00
827;DHT22;395;48.132;11.608;2023-05-21T08:13:12;20.70;1.00
827;DHT22;395;48.132;11.608;2023-05-21T08:15:38;20.70;1.00
827;DHT22;395;48.132;11.608;2023-05-21T08:18:03;20.70;1.00
827;DHT22;395;48.132;11.608;2023-05-21T08:20:30;20.70;1.00
827;DHT22;395;48.132;11.608;2023-05-21T08:22:57;20.80;1.00
827;DHT22;395;48.132;11.608;2023-05-21T08:25:22;20.80;1.00
827;DHT22;395;48.132;11.608;2023-05-21T08:27:48;20.80;1.00
827;DHT22;395;48.132;11.608;2023-05-21T08:30:14;20.80;1.00
827;DHT22;395;48.132;11.608;2023-05-21T08:32:40;20.90;1.00
827;DHT22;395;48.132;11.608;2023-05-21T08:35:06;20.90;1.00
827;DHT22;395;48.132;11.608;2023-05-21T08:37:33;21.00;1.00
827;DHT22;395;48.132;11.608;2023-05-21T08:39:59;21.00;1.00
827;DHT22;395;48.132;11.608;2023-05-21T08:42:47;21.10;1.00
827;DHT22;395;48.132;11.608;2023-05-21T08:45:19;21.20;1.00
827;DHT22;395;48.132;11.608;2023-05-21T08:47:44;21.30;1.00
827;DHT22;395;48.132;11.608;2023-05-21T08:50:15;21.40;1.00
827;DHT22;395;48.132;11.608;2023-05-21T08:52:40;21.50;1.00
827;DHT22;395;48.132;11.608;2023-05-21T08:55:07;21.50;1.00
827;DHT22;395;48.132;11.608;2023-05-21T08:57:35;21.60;1.00
827;DHT22;395;48.132;11.608;2023-05-21T09:00:02;21.80;1.00
827;DHT22;395;48.132;11.608;2023-05-21T09:02:32;21.80;1.00
827;DHT22;395;48.132;11.608;2023-05-21T09:04:58;22.00;1.00
827;DHT22;395;48.132;11.608;2023-05-21T09:07:27;22.10;1.00
827;DHT22;395;48.132;11.608;2023-05-21T09:10:03;22.10;1.00
827;DHT22;395;48.132;11.608;2023-05-21T09:12:30;22.20;1.00
827;DHT22;395;48.132;11.608;2023-05-21T09:14:58;22.30;1.00
827;DHT22;395;48.132;11.608;2023-05-21T09:17:24;22.40;1.00
827;DHT22;395;48.132;11.608;2023-05-21T09:20:06;22.50;1.00
827;DHT22;395;48.132;11.608;2023-05-21T09:25:09;22.70;1.00
827;DHT22;395;48.132;11.608;2023-05-21T09:27:35;22.80;1.00
827;DHT22;395;48.132;11.608;2023-05-21T09:30:03;22.80;1.00
827;DHT22;395;48.132;11.608;2023-05-21T09:32:28;22.90;1.00
827;DHT22;395;48.132;11.608;2023-05-21T09:34:54;23.00;1.00
827;DHT22;395;48.132;11.608;2023-05-21T09:37:20;23.10;1.00
827;DHT22;395;48.132;11.608;2023-05-21T09:39:47;23.20;1.00
827;DHT22;395;48.132;11.608;2023-05-21T09:42:13;23.30;1.00
827;DHT22;395;48.132;11.608;2023-05-21T09:44:42;23.40;1.00
827;DHT22;395;48.132;11.608;2023-05-21T09:47:08;23.40;1.00
827;DHT22;395;48.132;11.608;2023-05-21T09:49:37;23.40;1.00
827;DHT22;395;48.132;11.608;2023-05-21T09:52:02;23.50;1.00
827;DHT22;395;48.132;11.608;2023-05-21T09:54:32;23.60;1.00
827;DHT22;395;48.132;11.608;2023-05-21T09:57:02;23.70;1.00
827;DHT22;395;48.132;11.608;2023-05-21T09:59:40;23.70;1.00
827;DHT22;395;48.132;11.608;2023-05-21T10:02:19;23.80;1.00
827;DHT22;395;48.132;11.608;2023-05-21T10:04:50;23.90;1.00
827;DHT22;395;48.132;11.608;2023-05-21T10:07:20;24.00;1.00
827;DHT22;395;48.132;11.608;2023-05-21T10:09:53;24.00;1.00
827;DHT22;395;48.132;11.608;2023-05-21T10:12:22;24.20;1.00
827;DHT22;395;48.132;11.608;2023-05-21T10:15:12;24.20;1.00
827;DHT22;395;48.132;11.608;2023-05-21T10:17:47;24.30;1.00
827;DHT22;395;48.132;11.608;2023-05-21T10:20:14;24.40;1.00
827;DHT22;395;48.132;11.608;2023-05-21T10:22:41;24.50;1.00
827;DHT22;395;48.132;11.608;2023-05-21T10:25:07;24.60;1.00
827;DHT22;395;48.132;11.608;2023-05-21T10:27:36;24.60;1.00
827;DHT22;395;48.132;11.608;2023-05-21T10:30:04;24.70;1.00
827;DHT22;395;48.132;11.608;2023-05-21T10:32:31;24.70;1.00
827;DHT22;395;48.132;11.608;2023-05-21T10:34:57;24.80;1.00
827;DHT22;395;48.132;11.608;2023-05-21T10:37:24;24.80;1.00
827;DHT22;395;48.132;11.608;2023-05-21T10:39:56;24.80;1.00
827;DHT22;395;48.132;11.608;2023-05-21T10:45:22;24.80;1.00
827;DHT22;395;48.132;11.608;2023-05-21T10:56:23;24.70;1.00
827;DHT22;395;48.132;11.608;2023-05-21T11:01:36;24.70;1.00
827;DHT22;395;48.132;11.608;2023-05-21T11:04:05;24.70;1.00
827;DHT22;395;48.132;11.608;2023-05-21T11:06:31;24.70;1.00
827;DHT22;395;48.132;11.608;2023-05-21T11:09:00;24.70;1.00
827;DHT22;395;48.132;11.608;2023-05-21T11:11:50;24.70;1.00
827;DHT22;395;48.132;11.608;2023-05-21T11:17:11;24.60;1.00
827;DHT22;395;48.132;11.608;2023-05-21T11:19:44;24.70;1.00
827;DHT22;395;48.132;11.608;2023-05-21T11:22:24;24.70;1.00
827;DHT22;395;48.132;11.608;2023-05-21T11:24:50;24.70;1.00
827;DHT22;395;48.132;11.608;2023-05-21T11:27:36;24.90;1.00
827;DHT22;395;48.132;11.608;2023-05-21T11:30:13;24.90;1.00
827;DHT22;395;48.132;11.608;2023-05-21T11:33:16;24.90;1.00
827;DHT22;395;48.132;11.608;2023-05-21T11:35:26;25.00;1.00
827;DHT22;395;48.132;11.608;2023-05-21T11:37:53;25.10;1.00
827;DHT22;395;48.132;11.608;2023-05-21T11:40:23;25.20;1.00
827;DHT22;395;48.132;11.608;2023-05-21T11:42:54;25.30;1.00
827;DHT22;395;48.132;11.608;2023-05-21T11:45:28;25.40;1.00
827;DHT22;395;48.132;11.608;2023-05-21T11:47:55;25.40;1.00
827;DHT22;395;48.132;11.608;2023-05-21T11:50:21;25.60;1.00
827;DHT22;395;48.132;11.608;2023-05-21T11:52:48;25.70;1.00
827;DHT22;395;48.132;11.608;2023-05-21T11:55:14;25.70;1.00
827;DHT22;395;48.132;11.608;2023-05-21T11:57:43;25.80;1.00
827;DHT22;395;48.132;11.608;2023-05-21T12:00:14;25.90;1.00
827;DHT22;395;48.132;11.608;2023-05-21T12:02:49;26.00;1.00
827;DHT22;395;48.132;11.608;2023-05-21T12:05:14;26.10;1.00
827;DHT22;395;48.132;11.608;2023-05-21T12:07:41;26.20;1.00
827;DHT22;395;48.132;11.608;2023-05-21T12:10:07;26.30;1.00
827;DHT22;395;48.132;11.608;2023-05-21T12:12:33;26.30;1.00
827;DHT22;395;48.132;11.608;2023-05-21T12:15:00;26.40;1.00
827;DHT22;395;48.132;11.608;2023-05-21T12:17:26;26.40;1.00
827;DHT22;395;48.132;11.608;2023-05-21T12:19:56;26.40;1.00
827;DHT22;395;48.132;11.608;2023-05-21T12:22:25;26.40;1.00
827;DHT22;395;48.132;11.608;2023-05-21T12:24:52;26.30;1.00
827;DHT22;395;48.132;11.608;2023-05-21T12:27:20;26.20;1.00
827;DHT22;395;48.132;11.608;2023-05-21T12:29:48;26.10;1.00
827;DHT22;395;48.132;11.608;2023-05-21T12:32:16;26.10;1.00
827;DHT22;395;48.132;11.608;2023-05-21T12:34:52;26.10;1.00
827;DHT22;395;48.132;11.608;2023-05-21T12:37:29;26.00;1.00
827;DHT22;395;48.132;11.608;2023-05-21T12:40:00;26.10;1.00
827;DHT22;395;48.132;11.608;2023-05-21T12:42:31;26.10;1.00
827;DHT22;395;48.132;11.608;2023-05-21T12:45:00;26.00;1.00
827;DHT22;395;48.132;11.608;2023-05-21T12:47:26;26.10;1.00
827;DHT22;395;48.132;11.608;2023-05-21T12:49:59;26.20;1.00
827;DHT22;395;48.132;11.608;2023-05-21T12:52:28;26.20;1.00
827;DHT22;395;48.132;11.608;2023-05-21T12:54:57;26.30;1.00
827;DHT22;395;48.132;11.608;2023-05-21T12:57:33;26.20;1.00
827;DHT22;395;48.132;11.608;2023-05-21T13:00:00;26.20;1.00
827;DHT22;395;48.132;11.608;2023-05-21T13:02:40;26.10;1.00
827;DHT22;395;48.132;11.608;2023-05-21T13:05:08;26.10;1.00
827;DHT22;395;48.132;11.608;2023-05-21T13:07:36;26.10;1.00
827;DHT22;395;48.132;11.608;2023-05-21T13:10:03;26.20;1.00
827;DHT22;395;48.132;11.608;2023-05-21T13:12:30;26.30;1.00
827;DHT22;395;48.132;11.608;2023-05-21T13:14:57;26.50;1.00
827;DHT22;395;48.132;11.608;2023-05-21T13:17:24;26.60;1.00
827;DHT22;395;48.132;11.608;2023-05-21T13:20:03;26.60;1.00
827;DHT22;395;48.132;11.608;2023-05-21T13:22:34;26.70;1.00
827;DHT22;395;48.132;11.608;2023-05-21T13:25:03;26.70;1.00
827;DHT22;395;48.132;11.608;2023-05-21T13:27:29;26.80;1.00
827;DHT22;395;48.132;11.608;2023-05-21T13:29:55;26.80;1.00
827;DHT22;395;48.132;11.608;2023-05-21T13:32:21;26.80;1.00
827;DHT22;395;48.132;11.608;2023-05-21T13:34:47;26.80;1.00
827;DHT22;395;48.132;11.608;2023-05-21T13:37:13;26.80;1.00
827;DHT22;395;48.132;11.608;2023-05-21T13:39:39;26.70;1.00
827;DHT22;395;48.132;11.608;2023-05-21T13:42:05;26.70;1.00
827;DHT22;395;48.132;11.608;2023-05-21T13:44:31;26.80;1.00
827;DHT22;395;48.132;11.608;2023-05-21T13:47:04;26.80;1.00
827;DHT22;395;48.132;11.608;2023-05-21T13:49:32;26.90;1.00
827;DHT22;395;48.132;11.608;2023-05-21T13:51:58;26.90;1.00
827;DHT22;395;48.132;11.608;2023-05-21T13:54:25;26.80;1.00
827;DHT22;395;48.132;11.608;2023-05-21T13:56:51;26.80;1.00
827;DHT22;395;48.132;11.608;2023-05-21T13:59:17;26.80;1.00
827;DHT22;395;48.132;11.608;2023-05-21T14:01:43;26.60;1.00
827;DHT22;395;48.132;11.608;2023-05-21T14:04:12;26.60;1.00
827;DHT22;395;48.132;11.608;2023-05-21T14:06:38;26.70;1.00
827;DHT22;395;48.132;11.608;2023-05-21T14:09:06;26.80;1.00
827;DHT22;395;48.132;11.608;2023-05-21T14:11:32;26.80;1.00
827;DHT22;395;48.132;11.608;2023-05-21T14:13:58;26.90;1.00
827;DHT22;395;48.132;11.608;2023-05-21T14:16:24;27.00;1.00
827;DHT22;395;48.132;11.608;2023-05-21T14:18:52;27.00;1.00
827;DHT22;395;48.132;11.608;2023-05-21T14:21:18;27.00;1.00
827;DHT22;395;48.132;11.608;2023-05-21T14:23:43;27.10;1.00
827;DHT22;395;48.132;11.608;2023-05-21T14:26:09;27.20;1.00
827;DHT22;395;48.132;11.608;2023-05-21T14:28:35;27.40;1.00
827;DHT22;395;48.132;11.608;2023-05-21T14:31:02;27.50;1.00
827;DHT22;395;48.132;11.608;2023-05-21T14:33:30;27.50;1.00
827;DHT22;395;48.132;11.608;2023-05-21T14:35:56;27.70;1.00
827;DHT22;395;48.132;11.608;2023-05-21T14:38:22;27.90;1.00
827;DHT22;395;48.132;11.608;2023-05-21T14:40:48;27.90;1.00
827;DHT22;395;48.132;11.608;2023-05-21T14:43:14;28.00;1.00
827;DHT22;395;48.132;11.608;2023-05-21T14:45:40;28.10;1.00
827;DHT22;395;48.132;11.608;2023-05-21T14:48:06;28.30;1.00
827;DHT22;395;48.132;11.608;2023-05-21T14:50:37;28.40;1.00
827;DHT22;395;48.132;11.608;2023-05-21T14:53:07;28.50;1.00
827;DHT22;395;48.132;11.608;2023-05-21T14:55:33;28.60;1.00
827;DHT22;395;48.132;11.608;2023-05-21T14:57:59;28.70;1.00
827;DHT22;395;48.132;11.608;2023-05-21T15:00:26;28.70;1.00
827;DHT22;395;48.132;11.608;2023-05-21T15:02:52;28.70;1.00
827;DHT22;395;48.132;11.608;2023-05-21T15:05:18;28.60;1.00
827;DHT22;395;48.132;11.608;2023-05-21T15:07:44;28.50;1.00
827;DHT22;395;48.132;11.608;2023-05-21T15:10:10;28.40;1.00
827;DHT22;395;48.132;11.608;2023-05-21T15:12:39;28.50;1.00
827;DHT22;395;48.132;11.608;2023-05-21T15:15:06;28.60;1.00
827;DHT22;395;48.132;11.608;2023-05-21T15:17:33;28.60;1.00
827;DHT22;395;48.132;11.608;2023-05-21T15:19:58;28.70;1.00
827;DHT22;395;48.132;11.608;2023-05-21T15:22:31;28.70;1.00
827;DHT22;395;48.132;11.608;2023-05-21T15:24:56;28.60;1.00
827;DHT22;395;48.132;11.608;2023-05-21T15:27:22;28.40;1.00
827;DHT22;395;48.132;11.608;2023-05-21T15:29:49;28.40;1.00
827;DHT22;395;48.132;11.608;2023-05-21T15:32:15;28.40;1.00
827;DHT22;395;48.132;11.608;2023-05-21T15:34:41;28.40;1.00
827;DHT22;395;48.132;11.608;2023-05-21T15:37:07;28.40;1.00
827;DHT22;395;48.132;11.608;2023-05-21T15:39:33;28.40;1.00
827;DHT22;395;48.132;11.608;2023-05-21T15:41:58;28.40;1.00
827;DHT22;395;48.132;11.608;2023-05-21T15:44:25;28.40;1.00
827;DHT22;395;48.132;11.608;2023-05-21T15:46:51;28.50;1.00
827;DHT22;395;48.132;11.608;2023-05-21T15:49:18;28.40;1.00
827;DHT22;395;48.132;11.608;2023-05-21T15:51:45;28.40;1.00
827;DHT22;395;48.132;11.608;2023-05-21T15:54:11;28.30;1.00
827;DHT22;395;48.132;11.608;2023-05-21T15:56:39;28.30;1.00
827;DHT22;395;48.132;11.608;2023-05-21T15:59:05;28.60;1.00
827;DHT22;395;48.132;11.608;2023-05-21T16:01:31;28.20;1.00
827;DHT22;395;48.132;11.608;2023-05-21T16:03:56;27.90;1.00
827;DHT22;395;48.132;11.608;2023-05-21T16:06:23;27.70;1.00
827;DHT22;395;48.132;11.608;2023-05-21T16:08:48;27.50;1.00
827;DHT22;395;48.132;11.608;2023-05-21T16:11:14;27.60;1.00
827;DHT22;395;48.132;11.608;2023-05-21T16:13:40;27.40;1.00
827;DHT22;395;48.132;11.608;2023-05-21T16:16:06;27.60;1.00
827;DHT22;395;48.132;11.608;2023-05-21T16:18:32;27.40;1.00
827;DHT22;395;48.132;11.608;2023-05-21T16:20:57;27.50;1.00
827;DHT22;395;48.132;11.608;2023-05-21T16:23:23;27.40;1.00
827;DHT22;395;48.132;11.608;2023-05-21T16:25:49;27.40;1.00
827;DHT22;395;48.132;11.608;2023-05-21T16:28:15;27.40;1.00
827;DHT22;395;48.132;11.608;2023-05-21T16:30:40;27.40;1.00
827;DHT22;395;48.132;11.608;2023-05-21T16:33:06;27.30;1.00
827;DHT22;395;48.132;11.608;2023-05-21T16:35:32;27.30;1.00
827;DHT22;395;48.132;11.608;2023-05-21T16:37:58;27.30;1.00
827;DHT22;395;48.132;11.608;2023-05-21T16:40:24;27.20;1.00
827;DHT22;395;48.132;11.608;2023-05-21T16:42:51;27.20;1.00
827;DHT22;395;48.132;11.608;2023-05-21T16:45:17;27.10;1.00
827;DHT22;395;48.132;11.608;2023-05-21T16:47:48;27.00;1.00
827;DHT22;395;48.132;11.608;2023-05-21T16:50:14;27.00;1.00
827;DHT22;395;48.132;11.608;2023-05-21T16:52:40;27.00;1.00
827;DHT22;395;48.132;11.608;2023-05-21T16:55:06;26.90;1.00
827;DHT22;395;48.132;11.608;2023-05-21T16:57:32;26.90;1.00